sensor_id;sensor_type;location;lat;lon;timestamp;temperature;humidity
33093;DHT22;19456;46.104;12.908;2023-03-20T00:01:20;8.80;99.90
33093;DHT22;19456;46.104;12.908;2023-03-20T00:03:46;8.80;99.90
33093;DHT22;19456;46.104;12.908;2023-03-20T00:06:16;8.80;99.90
33093;DHT22;19456;46.104;12.908;2023-03-20T00:08:42;8.80;99.90
33093;DHT22;19456;46.104;12.908;2023-03-20T00:11:14;8.80;99.90
33093;DHT22;19456;46.104;12.908;2023-03-20T00:13:46;8.80;99.90
33093;DHT22;19456;46.104;12.908;2023-03-20T00:16:12;8.80;99.90
33093;DHT22;19456;46.104;12.908;2023-03-20T00:18:37;8.80;99.90
33093;DHT22;19456;46.104;12.908;2023-03-20T00:21:03;8.80;99.90
33093;DHT22;19456;46.104;12.908;2023-03-20T00:23:29;8.90;99.90
33093;DHT22;19456;46.104;12.908;2023-03-20T00:25:55;8.90;99.90
33093;DHT22;19456;46.104;12.908;2023-03-20T00:31:27;8.90;99.90
33093;DHT22;19456;46.104;12.908;2023-03-20T00:34:01;9.00;99.90
33093;DHT22;19456;46.104;12.908;2023-03-20T00:36:28;9.00;99.90
33093;DHT22;19456;46.104;12.908;2023-03-20T00:38:54;9.00;99.90
33093;DHT22;19456;46.104;12.908;2023-03-20T00:44:39;9.20;99.90
33093;DHT22;19456;46.104;12.908;2023-03-20T00:46:46;9.20;99.90
33093;DHT22;19456;46.104;12.908;2023-03-20T00:49:13;9.20;99.90
33093;DHT22;19456;46.104;12.908;2023-03-20T00:51:38;9.20;99.90
33093;DHT22;19456;46.104;12.908;2023-03-20T00:54:07;9.20;99.90
33093;DHT22;19456;46.104;12.908;2023-03-20T00:56:35;9.20;99.90
33093;DHT22;19456;46.104;12.908;2023-03-20T00:59:04;9.20;99.90
33093;DHT22;19456;46.104;12.908;2023-03-20T01:01:31;9.30;99.90
33093;DHT22;19456;46.104;12.908;2023-03-20T01:03:57;9.30;99.90
33093;DHT22;19456;46.104;12.908;2023-03-20T01:06:23;9.20;99.90
33093;DHT22;19456;46.104;12.908;2023-03-20T01:08:49;9.20;99.90
33093;DHT22;19456;46.104;12.908;2023-03-20T01:11:15;9.20;99.90
33093;DHT22;19456;46.104;12.908;2023-03-20T01:13:44;9.30;99.90
33093;DHT22;19456;46.104;12.908;2023-03-20T01:16:19;9.40;99.90
33093;DHT22;19456;46.104;12.908;2023-03-20T01:18:45;9.40;99.90
33093;DHT22;19456;46.104;12.908;2023-03-20T01:21:11;9.40;99.90
33093;DHT22;19456;46.104;12.908;2023-03-20T01:23:36;9.30;99.90
33093;DHT22;19456;46.104;12.908;2023-03-20T01:26:02;9.20;99.90
33093;DHT22;19456;46.104;12.908;2023-03-20T01:28:27;9.20;99.90
33093;DHT22;19456;46.104;12.908;2023-03-20T01:30:54;9.10;99.90
33093;DHT22;19456;46.104;12.908;2023-03-20T01:33:20;9.10;99.90
33093;DHT22;19456;46.104;12.908;2023-03-20T01:35:47;9.00;99.90
33093;DHT22;19456;46.104;12.908;2023-03-20T01:43:43;8.80;99.90
33093;DHT22;19456;46.104;12.908;2023-03-20T01:51:15;8.80;99.90
33093;DHT22;19456;46.104;12.908;2023-03-20T01:53:41;8.80;99.90
33093;DHT22;19456;46.104;12.908;2023-03-20T01:56:07;8.70;99.90
33093;DHT22;19456;46.104;12.908;2023-03-20T01:58:34;8.70;99.90
33093;DHT22;19456;46.104;12.908;2023-03-20T02:01:02;8.70;99.90
33093;DHT22;19456;46.104;12.908;2023-03-20T02:03:28;8.80;99.90
33093;DHT22;19456;46.104;12.908;2023-03-20T02:05:54;8.80;99.90
33093;DHT22;19456;46.104;12.908;2023-03-20T02:08:24;8.80;99.90
33093;DHT22;19456;46.104;12.908;2023-03-20T02:10:51;8.80;99.90
33093;DHT22;19456;46.104;12.908;2023-03-20T02:13:18;8.80;99.90
33093;DHT22;19456;46.104;12.908;2023-03-20T02:15:56;8.80;99.90
33093;DHT22;19456;46.104;12.908;2023-03-20T02:18:22;8.80;99.90
33093;DHT22;19456;46.104;12.908;2023-03-20T02:41:37;9.00;99.90
33093;DHT22;19456;46.104;12.908;2023-03-20T02:49:16;8.80;99.90
33093;DHT22;19456;46.104;12.908;2023-03-20T02:51:52;8.80;99.90
33093;DHT22;19456;46.104;12.908;2023-03-20T02:57:07;8.80;99.90
33093;DHT22;19456;46.104;12.908;2023-03-20T03:02:19;8.70;99.90
33093;DHT22;19456;46.104;12.908;2023-03-20T03:04:51;8.60;99.90
33093;DHT22;19456;46.104;12.908;2023-03-20T03:07:18;8.60;99.90
33093;DHT22;19456;46.104;12.908;2023-03-20T03:09:50;8.50;99.90
33093;DHT22;19456;46.104;12.908;2023-03-20T03:12:21;8.60;99.90
33093;DHT22;19456;46.104;12.908;2023-03-20T03:14:49;8.60;99.90
33093;DHT22;19456;46.104;12.908;2023-03-20T03:17:17;8.60;99.90
33093;DHT22;19456;46.104;12.908;2023-03-20T03:19:44;8.70;99.90
33093;DHT22;19456;46.104;12.908;2023-03-20T03:22:12;8.80;99.90
33093;DHT22;19456;46.104;12.908;2023-03-20T03:24:42;8.80;99.90
33093;DHT22;19456;46.104;12.908;2023-03-20T03:29:39;9.00;99.90
33093;DHT22;19456;46.104;12.908;2023-03-20T03:32:06;9.10;99.90
33093;DHT22;19456;46.104;12.908;2023-03-20T03:34:45;9.20;99.90
33093;DHT22;19456;46.104;12.908;2023-03-20T03:37:20;9.20;99.90
33093;DHT22;19456;46.104;12.908;2023-03-20T03:42:30;9.20;99.90
33093;DHT22;19456;46.104;12.908;2023-03-20T03:44:59;9.10;99.90
33093;DHT22;19456;46.104;12.908;2023-03-20T03:47:39;9.20;99.90
33093;DHT22;19456;46.104;12.908;2023-03-20T03:50:09;9.10;99.90
33093;DHT22;19456;46.104;12.908;2023-03-20T03:52:37;9.10;99.90
33093;DHT22;19456;46.104;12.908;2023-03-20T03:55:04;9.10;99.90
33093;DHT22;19456;46.104;12.908;2023-03-20T03:57:44;9.20;99.90
33093;DHT22;19456;46.104;12.908;2023-03-20T04:00:13;9.10;99.90
33093;DHT22;19456;46.104;12.908;2023-03-20T04:02:42;9.10;99.90
33093;DHT22;19456;46.104;12.908;2023-03-20T04:05:10;9.10;99.90
33093;DHT22;19456;46.104;12.908;2023-03-20T04:07:36;9.10;99.90
33093;DHT22;19456;46.104;12.908;2023-03-20T04:10:02;9.10;99.90
33093;DHT22;19456;46.104;12.908;2023-03-20T04:12:32;9.10;99.90
33093;DHT22;19456;46.104;12.908;2023-03-20T04:14:58;9.20;99.90
33093;DHT22;19456;46.104;12.908;2023-03-20T04:17:23;9.10;99.90
33093;DHT22;19456;46.104;12.908;2023-03-20T04:19:49;9.10;99.90
33093;DHT22;19456;46.104;12.908;2023-03-20T04:22:14;9.00;99.90
33093;DHT22;19456;46.104;12.908;2023-03-20T04:24:40;8.90;99.90
33093;DHT22;19456;46.104;12.908;2023-03-20T04:27:06;8.80;99.90
33093;DHT22;19456;46.104;12.908;2023-03-20T04:29:32;8.70;99.90
33093;DHT22;19456;46.104;12.908;2023-03-20T04:31:57;8.60;99.90
33093;DHT22;19456;46.104;12.908;2023-03-20T04:34:24;8.50;99.90
33093;DHT22;19456;46.104;12.908;2023-03-20T04:36:49;8.50;99.90
33093;DHT22;19456;46.104;12.908;2023-03-20T04:39:15;8.50;99.90
33093;DHT22;19456;46.104;12.908;2023-03-20T04:41:41;8.50;99.90
33093;DHT22;19456;46.104;12.908;2023-03-20T04:44:06;8.60;99.90
33093;DHT22;19456;46.104;12.908;2023-03-20T04:46:32;8.70;99.90
33093;DHT22;19456;46.104;12.908;2023-03-20T04:48:57;8.70;99.90
33093;DHT22;19456;46.104;12.908;2023-03-20T04:51:23;8.70;99.90
33093;DHT22;19456;46.104;12.908;2023-03-20T04:53:49;8.60;99.90
33093;DHT22;19456;46.104;12.908;2023-03-20T04:56:14;8.40;99.90
33093;DHT22;19456;46.104;12.908;2023-03-20T04:58:40;8.30;99.90
33093;DHT22;19456;46.104;12.908;2023-03-20T05:01:06;8.30;99.90
33093;DHT22;19456;46.104;12.908;2023-03-20T05:03:31;8.20;99.90
33093;DHT22;19456;46.104;12.908;2023-03-20T05:05:57;8.20;99.90
33093;DHT22;19456;46.104;12.908;2023-03-20T05:08:23;8.20;99.90
33093;DHT22;19456;46.104;12.908;2023-03-20T05:10:49;8.10;99.90
33093;DHT22;19456;46.104;12.908;2023-03-20T05:13:14;8.00;99.90
33093;DHT22;19456;46.104;12.908;2023-03-20T05:15:40;8.10;99.90
33093;DHT22;19456;46.104;12.908;2023-03-20T05:18:05;8.00;99.90
33093;DHT22;19456;46.104;12.908;2023-03-20T05:20:31;8.10;99.90
33093;DHT22;19456;46.104;12.908;2023-03-20T05:22:57;8.00;99.90
33093;DHT22;19456;46.104;12.908;2023-03-20T05:25:22;8.00;99.90
33093;DHT22;19456;46.104;12.908;2023-03-20T05:27:48;8.00;99.90
33093;DHT22;19456;46.104;12.908;2023-03-20T05:30:13;8.10;99.90
33093;DHT22;19456;46.104;12.908;2023-03-20T05:32:39;8.20;99.90
33093;DHT22;19456;46.104;12.908;2023-03-20T05:35:06;8.30;99.90
33093;DHT22;19456;46.104;12.908;2023-03-20T05:37:33;8.20;99.90
33093;DHT22;19456;46.104;12.908;2023-03-20T05:39:58;8.10;99.90
33093;DHT22;19456;46.104;12.908;2023-03-20T05:42:24;8.20;99.90
33093;DHT22;19456;46.104;12.908;2023-03-20T05:44:50;8.30;99.90
33093;DHT22;19456;46.104;12.908;2023-03-20T05:47:15;8.30;99.90
33093;DHT22;19456;46.104;12.908;2023-03-20T05:49:41;8.40;99.90
33093;DHT22;19456;46.104;12.908;2023-03-20T05:52:07;8.50;99.90
33093;DHT22;19456;46.104;12.908;2023-03-20T05:54:32;8.50;99.90
33093;DHT22;19456;46.104;12.908;2023-03-20T05:56:58;8.40;99.90
33093;DHT22;19456;46.104;12.908;2023-03-20T05:59:23;8.40;99.90
33093;DHT22;19456;46.104;12.908;2023-03-20T06:01:49;8.40;99.90
33093;DHT22;19456;46.104;12.908;2023-03-20T06:04:15;8.40;99.90
33093;DHT22;19456;46.104;12.908;2023-03-20T06:06:41;8.50;99.90
33093;DHT22;19456;46.104;12.908;2023-03-20T06:09:06;8.70;99.90
33093;DHT22;19456;46.104;12.908;2023-03-20T06:11:32;8.80;99.90
33093;DHT22;19456;46.104;12.908;2023-03-20T06:13:57;8.90;99.90
33093;DHT22;19456;46.104;12.908;2023-03-20T06:16:23;8.90;99.90
33093;DHT22;19456;46.104;12.908;2023-03-20T06:18:49;9.00;99.90
33093;DHT22;19456;46.104;12.908;2023-03-20T06:21:14;9.00;99.90
33093;DHT22;19456;46.104;12.908;2023-03-20T06:23:40;9.00;99.90
33093;DHT22;19456;46.104;12.908;2023-03-20T06:26:06;9.00;99.90
33093;DHT22;19456;46.104;12.908;2023-03-20T06:28:32;9.20;99.90
33093;DHT22;19456;46.104;12.908;2023-03-20T06:30:57;9.30;99.90
33093;DHT22;19456;46.104;12.908;2023-03-20T06:33:23;9.50;99.90
33093;DHT22;19456;46.104;12.908;2023-03-20T06:35:49;9.50;99.90
33093;DHT22;19456;46.104;12.908;2023-03-20T06:38:14;9.50;99.90
33093;DHT22;19456;46.104;12.908;2023-03-20T06:40:40;9.50;99.90
33093;DHT22;19456;46.104;12.908;2023-03-20T06:46:14;9.50;99.90
33093;DHT22;19456;46.104;12.908;2023-03-20T06:48:40;9.50;99.90
33093;DHT22;19456;46.104;12.908;2023-03-20T06:51:10;9.60;99.90
33093;DHT22;19456;46.104;12.908;2023-03-20T06:53:38;9.60;99.90
33093;DHT22;19456;46.104;12.908;2023-03-20T06:56:06;9.80;99.90
33093;DHT22;19456;46.104;12.908;2023-03-20T06:58:32;9.90;99.90
33093;DHT22;19456;46.104;12.908;2023-03-20T07:00:57;10.00;99.90
33093;DHT22;19456;46.104;12.908;2023-03-20T07:03:23;10.00;99.90
33093;DHT22;19456;46.104;12.908;2023-03-20T07:05:48;10.10;99.90
33093;DHT22;19456;46.104;12.908;2023-03-20T07:08:26;10.20;99.90
33093;DHT22;19456;46.104;12.908;2023-03-20T07:10:51;10.40;99.90
33093;DHT22;19456;46.104;12.908;2023-03-20T07:13:17;10.60;99.90
33093;DHT22;19456;46.104;12.908;2023-03-20T07:15:44;10.60;99.90
33093;DHT22;19456;46.104;12.908;2023-03-20T07:18:10;10.80;99.90
33093;DHT22;19456;46.104;12.908;2023-03-20T07:20:35;10.80;99.90
33093;DHT22;19456;46.104;12.908;2023-03-20T07:23:01;10.70;99.90
33093;DHT22;19456;46.104;12.908;2023-03-20T07:25:27;10.70;99.90
33093;DHT22;19456;46.104;12.908;2023-03-20T07:34:32;11.00;99.90
33093;DHT22;19456;46.104;12.908;2023-03-20T07:36:57;11.10;99.90
33093;DHT22;19456;46.104;12.908;2023-03-20T07:39:23;11.10;99.90
33093;DHT22;19456;46.104;12.908;2023-03-20T07:41:48;11.10;99.90
33093;DHT22;19456;46.104;12.908;2023-03-20T07:44:14;11.20;99.90
33093;DHT22;19456;46.104;12.908;2023-03-20T07:46:42;11.30;99.90
33093;DHT22;19456;46.104;12.908;2023-03-20T07:49:08;11.40;99.90
33093;DHT22;19456;46.104;12.908;2023-03-20T07:51:34;11.60;99.90
33093;DHT22;19456;46.104;12.908;2023-03-20T07:54:00;11.80;99.90
33093;DHT22;19456;46.104;12.908;2023-03-20T07:56:26;11.90;99.90
33093;DHT22;19456;46.104;12.908;2023-03-20T07:59:00;12.00;99.90
33093;DHT22;19456;46.104;12.908;2023-03-20T08:01:28;12.10;99.90
33093;DHT22;19456;46.104;12.908;2023-03-20T08:10:20;12.40;99.90
33093;DHT22;19456;46.104;12.908;2023-03-20T08:12:50;12.40;99.90
33093;DHT22;19456;46.104;12.908;2023-03-20T08:21:28;12.80;99.90
33093;DHT22;19456;46.104;12.908;2023-03-20T08:23:54;12.60;99.90
33093;DHT22;19456;46.104;12.908;2023-03-20T08:29:26;12.80;99.90
33093;DHT22;19456;46.104;12.908;2023-03-20T08:31:51;12.90;99.90
33093;DHT22;19456;46.104;12.908;2023-03-20T08:34:17;13.10;99.90
33093;DHT22;19456;46.104;12.908;2023-03-20T08:36:46;13.20;99.90
33093;DHT22;19456;46.104;12.908;2023-03-20T08:39:11;13.20;99.90
33093;DHT22;19456;46.104;12.908;2023-03-20T08:41:37;13.40;99.90
33093;DHT22;19456;46.104;12.908;2023-03-20T08:44:13;13.50;99.90
33093;DHT22;19456;46.104;12.908;2023-03-20T08:46:40;13.60;99.90
33093;DHT22;19456;46.104;12.908;2023-03-20T08:49:08;13.60;99.90
33093;DHT22;19456;46.104;12.908;2023-03-20T08:51:35;13.70;99.90
33093;DHT22;19456;46.104;12.908;2023-03-20T09:03:22;13.90;99.90
33093;DHT22;19456;46.104;12.908;2023-03-20T09:08:54;13.90;99.90
33093;DHT22;19456;46.104;12.908;2023-03-20T09:11:21;14.00;99.90
33093;DHT22;19456;46.104;12.908;2023-03-20T09:13:47;14.10;99.90
33093;DHT22;19456;46.104;12.908;2023-03-20T09:16:13;14.20;99.90
33093;DHT22;19456;46.104;12.908;2023-03-20T09:18:41;14.30;99.90
33093;DHT22;19456;46.104;12.908;2023-03-20T09:21:16;14.40;99.90
33093;DHT22;19456;46.104;12.908;2023-03-20T09:23:41;14.60;99.90
33093;DHT22;19456;46.104;12.908;2023-03-20T09:26:07;14.70;99.90
33093;DHT22;19456;46.104;12.908;2023-03-20T09:28:33;14.80;99.90
33093;DHT22;19456;46.104;12.908;2023-03-20T09:30:58;15.00;99.90
33093;DHT22;19456;46.104;12.908;2023-03-20T09:33:25;15.00;99.90
33093;DHT22;19456;46.104;12.908;2023-03-20T09:35:51;15.00;99.90
33093;DHT22;19456;46.104;12.908;2023-03-20T09:38:17;15.00;99.90
33093;DHT22;19456;46.104;12.908;2023-03-20T09:40:51;15.00;99.90
33093;DHT22;19456;46.104;12.908;2023-03-20T09:50:59;15.60;99.90
33093;DHT22;19456;46.104;12.908;2023-03-20T09:56:03;15.70;99.90
33093;DHT22;19456;46.104;12.908;2023-03-20T09:58:48;15.90;99.90
33093;DHT22;19456;46.104;12.908;2023-03-20T10:01:20;16.00;99.90
33093;DHT22;19456;46.104;12.908;2023-03-20T10:03:49;16.20;99.90
33093;DHT22;19456;46.104;12.908;2023-03-20T10:09:20;16.40;99.90
33093;DHT22;19456;46.104;12.908;2023-03-20T10:14:21;16.40;99.90
33093;DHT22;19456;46.104;12.908;2023-03-20T10:19:22;16.50;99.90
33093;DHT22;19456;46.104;12.908;2023-03-20T10:22:05;16.50;99.90
33093;DHT22;19456;46.104;12.908;2023-03-20T10:24:37;16.60;99.90
33093;DHT22;19456;46.104;12.908;2023-03-20T10:27:09;16.40;99.90
33093;DHT22;19456;46.104;12.908;2023-03-20T10:37:34;16.70;99.90
33093;DHT22;19456;46.104;12.908;2023-03-20T10:40:15;16.50;99.90
33093;DHT22;19456;46.104;12.908;2023-03-20T10:42:44;16.50;99.90
33093;DHT22;19456;46.104;12.908;2023-03-20T10:48:28;16.50;99.90
33093;DHT22;19456;46.104;12.908;2023-03-20T10:50:58;17.00;99.90
33093;DHT22;19456;46.104;12.908;2023-03-20T10:53:29;17.30;99.90
33093;DHT22;19456;46.104;12.908;2023-03-20T10:56:14;17.60;99.90
33093;DHT22;19456;46.104;12.908;2023-03-20T10:58:46;17.60;99.90
33093;DHT22;19456;46.104;12.908;2023-03-20T11:01:15;17.00;99.90
33093;DHT22;19456;46.104;12.908;2023-03-20T11:03:52;16.90;99.90
33093;DHT22;19456;46.104;12.908;2023-03-20T11:06:19;16.70;99.90
33093;DHT22;19456;46.104;12.908;2023-03-20T11:08:48;16.90;99.90
33093;DHT22;19456;46.104;12.908;2023-03-20T11:11:20;17.40;99.90
33093;DHT22;19456;46.104;12.908;2023-03-20T11:30:02;19.20;99.90
33093;DHT22;19456;46.104;12.908;2023-03-20T11:32:44;19.90;99.90
33093;DHT22;19456;46.104;12.908;2023-03-20T11:37:42;20.10;99.90
33093;DHT22;19456;46.104;12.908;2023-03-20T11:45:41;20.30;99.90
33093;DHT22;19456;46.104;12.908;2023-03-20T11:48:23;20.80;99.90
33093;DHT22;19456;46.104;12.908;2023-03-20T11:51:05;20.70;99.90
33093;DHT22;19456;46.104;12.908;2023-03-20T11:53:34;20.80;99.90
33093;DHT22;19456;46.104;12.908;2023-03-20T11:58:30;20.30;99.90
33093;DHT22;19456;46.104;12.908;2023-03-20T12:00:56;20.00;99.90
33093;DHT22;19456;46.104;12.908;2023-03-20T12:03:43;19.50;99.90
33093;DHT22;19456;46.104;12.908;2023-03-20T12:06:14;19.10;99.90
33093;DHT22;19456;46.104;12.908;2023-03-20T12:08:40;19.00;99.90
33093;DHT22;19456;46.104;12.908;2023-03-20T12:11:14;18.80;99.90
33093;DHT22;19456;46.104;12.908;2023-03-20T12:13:41;18.70;99.90
33093;DHT22;19456;46.104;12.908;2023-03-20T12:16:12;18.60;99.90
33093;DHT22;19456;46.104;12.908;2023-03-20T12:18:58;18.40;99.90
33093;DHT22;19456;46.104;12.908;2023-03-20T12:23:51;18.40;99.90
33093;DHT22;19456;46.104;12.908;2023-03-20T12:26:21;18.40;99.90
33093;DHT22;19456;46.104;12.908;2023-03-20T12:31:25;18.00;99.90
33093;DHT22;19456;46.104;12.908;2023-03-20T12:33:56;17.80;99.90
33093;DHT22;19456;46.104;12.908;2023-03-20T12:38:54;17.80;99.90
33093;DHT22;19456;46.104;12.908;2023-03-20T12:41:21;17.70;99.90
33093;DHT22;19456;46.104;12.908;2023-03-20T12:49:34;17.70;99.90
33093;DHT22;19456;46.104;12.908;2023-03-20T12:57:54;17.50;99.90
33093;DHT22;19456;46.104;12.908;2023-03-20T13:03:36;17.20;99.90
33093;DHT22;19456;46.104;12.908;2023-03-20T13:15:57;17.40;99.90
33093;DHT22;19456;46.104;12.908;2023-03-20T13:20:57;17.30;99.90
33093;DHT22;19456;46.104;12.908;2023-03-20T13:25:55;17.40;99.90
33093;DHT22;19456;46.104;12.908;2023-03-20T13:28:36;17.40;99.90
33093;DHT22;19456;46.104;12.908;2023-03-20T13:36:20;17.40;99.90
33093;DHT22;19456;46.104;12.908;2023-03-20T13:38:52;17.30;99.90
33093;DHT22;19456;46.104;12.908;2023-03-20T13:41:18;17.30;99.90
33093;DHT22;19456;46.104;12.908;2023-03-20T13:46:11;17.00;99.90
33093;DHT22;19456;46.104;12.908;2023-03-20T13:48:39;16.90;99.90
33093;DHT22;19456;46.104;12.908;2023-03-20T13:53:56;16.90;99.90
33093;DHT22;19456;46.104;12.908;2023-03-20T14:04:21;17.10;99.90
33093;DHT22;19456;46.104;12.908;2023-03-20T14:06:51;17.30;99.90
33093;DHT22;19456;46.104;12.908;2023-03-20T14:09:30;17.30;99.90
33093;DHT22;19456;46.104;12.908;2023-03-20T14:12:14;17.10;99.90
33093;DHT22;19456;46.104;12.908;2023-03-20T14:14:45;17.10;99.90
33093;DHT22;19456;46.104;12.908;2023-03-20T14:17:18;17.10;99.90
33093;DHT22;19456;46.104;12.908;2023-03-20T14:19:44;17.10;99.90
33093;DHT22;19456;46.104;12.908;2023-03-20T14:22:17;16.90;99.90
33093;DHT22;19456;46.104;12.908;2023-03-20T14:24:48;16.70;99.90
33093;DHT22;19456;46.104;12.908;2023-03-20T14:27:18;16.50;99.90
33093;DHT22;19456;46.104;12.908;2023-03-20T14:29:45;16.40;99.90
33093;DHT22;19456;46.104;12.908;2023-03-20T14:34:44;16.10;99.90
33093;DHT22;19456;46.104;12.908;2023-03-20T14:39:59;16.00;99.90
33093;DHT22;19456;46.104;12.908;2023-03-20T14:42:45;15.80;99.90
33093;DHT22;19456;46.104;12.908;2023-03-20T14:53:02;15.80;99.90
33093;DHT22;19456;46.104;12.908;2023-03-20T14:55:32;15.80;99.90
33093;DHT22;19456;46.104;12.908;2023-03-20T14:58:02;15.70;99.90
33093;DHT22;19456;46.104;12.908;2023-03-20T15:00:28;15.60;99.90
33093;DHT22;19456;46.104;12.908;2023-03-20T15:03:08;15.60;99.90
33093;DHT22;19456;46.104;12.908;2023-03-20T15:05:35;15.60;99.90
33093;DHT22;19456;46.104;12.908;2023-03-20T15:08:06;15.50;99.90
33093;DHT22;19456;46.104;12.908;2023-03-20T15:10:33;15.40;99.90
33093;DHT22;19456;46.104;12.908;2023-03-20T15:12:59;15.50;99.90
33093;DHT22;19456;46.104;12.908;2023-03-20T15:15:27;15.50;99.90
33093;DHT22;19456;46.104;12.908;2023-03-20T15:17:54;15.50;99.90
33093;DHT22;19456;46.104;12.908;2023-03-20T15:20:24;15.50;99.90
33093;DHT22;19456;46.104;12.908;2023-03-20T15:22:54;15.60;99.90
33093;DHT22;19456;46.104;12.908;2023-03-20T15:25:22;15.50;99.90
33093;DHT22;19456;46.104;12.908;2023-03-20T15:27:48;15.50;99.90
33093;DHT22;19456;46.104;12.908;2023-03-20T15:30:14;15.40;99.90
33093;DHT22;19456;46.104;12.908;2023-03-20T15:32:40;15.50;99.90
33093;DHT22;19456;46.104;12.908;2023-03-20T15:35:15;15.50;99.90
33093;DHT22;19456;46.104;12.908;2023-03-20T15:37:42;15.50;99.90
33093;DHT22;19456;46.104;12.908;2023-03-20T15:40:09;15.40;99.90
33093;DHT22;19456;46.104;12.908;2023-03-20T15:42:35;15.40;99.90
33093;DHT22;19456;46.104;12.908;2023-03-20T15:45:01;15.40;99.90
33093;DHT22;19456;46.104;12.908;2023-03-20T15:47:27;15.50;99.90
33093;DHT22;19456;46.104;12.908;2023-03-20T15:49:54;15.40;99.90
33093;DHT22;19456;46.104;12.908;2023-03-20T15:54:46;15.40;99.90
33093;DHT22;19456;46.104;12.908;2023-03-20T15:57:13;15.40;99.90
33093;DHT22;19456;46.104;12.908;2023-03-20T15:59:40;15.40;99.90
33093;DHT22;19456;46.104;12.908;2023-03-20T16:02:07;15.50;99.90
33093;DHT22;19456;46.104;12.908;2023-03-20T16:04:35;15.40;99.90
33093;DHT22;19456;46.104;12.908;2023-03-20T16:07:00;15.40;99.90
33093;DHT22;19456;46.104;12.908;2023-03-20T16:09:27;15.40;99.90
33093;DHT22;19456;46.104;12.908;2023-03-20T16:12:00;15.40;99.90
33093;DHT22;19456;46.104;12.908;2023-03-20T16:14:27;15.40;99.90
33093;DHT22;19456;46.104;12.908;2023-03-20T16:16:53;15.40;99.90
33093;DHT22;19456;46.104;12.908;2023-03-20T16:19:20;15.40;99.90
33093;DHT22;19456;46.104;12.908;2023-03-20T16:21:56;15.30;99.90
33093;DHT22;19456;46.104;12.908;2023-03-20T16:24:26;15.40;99.90
33093;DHT22;19456;46.104;12.908;2023-03-20T16:26:52;15.30;99.90
33093;DHT22;19456;46.104;12.908;2023-03-20T16:29:18;15.40;99.90
33093;DHT22;19456;46.104;12.908;2023-03-20T16:31:55;15.50;99.90
33093;DHT22;19456;46.104;12.908;2023-03-20T16:34:26;15.50;99.90
33093;DHT22;19456;46.104;12.908;2023-03-20T16:36:56;15.50;99.90
33093;DHT22;19456;46.104;12.908;2023-03-20T16:39:23;15.40;99.90
33093;DHT22;19456;46.104;12.908;2023-03-20T16:41:54;15.40;99.90
33093;DHT22;19456;46.104;12.908;2023-03-20T16:44:21;15.40;99.90
33093;DHT22;19456;46.104;12.908;2023-03-20T16:46:52;15.30;99.90
33093;DHT22;19456;46.104;12.908;2023-03-20T16:51:44;15.30;99.90
33093;DHT22;19456;46.104;12.908;2023-03-20T16:54:12;15.20;99.90
33093;DHT22;19456;46.104;12.908;2023-03-20T16:56:42;15.20;99.90
33093;DHT22;19456;46.104;12.908;2023-03-20T16:59:16;15.00;99.90
33093;DHT22;19456;46.104;12.908;2023-03-20T17:01:42;15.00;99.90
33093;DHT22;19456;46.104;12.908;2023-03-20T17:04:13;14.90;99.90
33093;DHT22;19456;46.104;12.908;2023-03-20T17:06:43;14.80;99.90
33093;DHT22;19456;46.104;12.908;2023-03-20T17:09:17;14.70;99.90
33093;DHT22;19456;46.104;12.908;2023-03-20T17:11:45;14.70;99.90
33093;DHT22;19456;46.104;12.908;2023-03-20T17:14:11;14.60;99.90
33093;DHT22;19456;46.104;12.908;2023-03-20T17:16:37;14.50;99.90
33093;DHT22;19456;46.104;12.908;2023-03-20T17:19:05;14.40;99.90
33093;DHT22;19456;46.104;12.908;2023-03-20T17:21:31;14.30;99.90
33093;DHT22;19456;46.104;12.908;2023-03-20T17:23:57;14.20;99.90
33093;DHT22;19456;46.104;12.908;2023-03-20T17:26:23;14.10;99.90
33093;DHT22;19456;46.104;12.908;2023-03-20T17:28:49;14.00;99.90
33093;DHT22;19456;46.104;12.908;2023-03-20T17:31:15;14.00;99.90
33093;DHT22;19456;46.104;12.908;2023-03-20T17:33:42;14.00;99.90
33093;DHT22;19456;46.104;12.908;2023-03-20T17:36:31;13.90;99.90
33093;DHT22;19456;46.104;12.908;2023-03-20T17:38:55;13.90;99.90
33093;DHT22;19456;46.104;12.908;2023-03-20T17:41:22;13.80;99.90
33093;DHT22;19456;46.104;12.908;2023-03-20T17:43:48;13.80;99.90
33093;DHT22;19456;46.104;12.908;2023-03-20T17:46:34;13.70;99.90
33093;DHT22;19456;46.104;12.908;2023-03-20T17:49:03;13.70;99.90
33093;DHT22;19456;46.104;12.908;2023-03-20T17:51:30;13.60;99.90
33093;DHT22;19456;46.104;12.908;2023-03-20T17:53:56;13.60;99.90
33093;DHT22;19456;46.104;12.908;2023-03-20T17:56:23;13.50;99.90
33093;DHT22;19456;46.104;12.908;2023-03-20T17:58:49;13.50;99.90
33093;DHT22;19456;46.104;12.908;2023-03-20T18:01:15;13.50;99.90
33093;DHT22;19456;46.104;12.908;2023-03-20T18:03:41;13.40;99.90
33093;DHT22;19456;46.104;12.908;2023-03-20T18:06:06;13.40;99.90
33093;DHT22;19456;46.104;12.908;2023-03-20T18:08:32;13.40;99.90
33093;DHT22;19456;46.104;12.908;2023-03-20T18:10:58;13.20;99.90
33093;DHT22;19456;46.104;12.908;2023-03-20T18:13:24;13.00;99.90
33093;DHT22;19456;46.104;12.908;2023-03-20T18:15:51;12.90;99.90
33093;DHT22;19456;46.104;12.908;2023-03-20T18:18:17;12.90;99.90
33093;DHT22;19456;46.104;12.908;2023-03-20T18:20:43;12.80;99.90
33093;DHT22;19456;46.104;12.908;2023-03-20T18:23:10;12.80;99.90
33093;DHT22;19456;46.104;12.908;2023-03-20T18:25:35;12.70;99.90
33093;DHT22;19456;46.104;12.908;2023-03-20T18:28:02;12.70;99.90
33093;DHT22;19456;46.104;12.908;2023-03-20T18:30:32;12.70;99.90
33093;DHT22;19456;46.104;12.908;2023-03-20T18:32:59;12.70;99.90
33093;DHT22;19456;46.104;12.908;2023-03-20T18:35:24;12.60;99.90
33093;DHT22;19456;46.104;12.908;2023-03-20T18:37:50;12.50;99.90
33093;DHT22;19456;46.104;12.908;2023-03-20T18:42:41;12.30;99.90
33093;DHT22;19456;46.104;12.908;2023-03-20T18:45:07;12.10;99.90
33093;DHT22;19456;46.104;12.908;2023-03-20T18:47:32;12.00;99.90
33093;DHT22;19456;46.104;12.908;2023-03-20T18:49:58;11.80;99.90
33093;DHT22;19456;46.104;12.908;2023-03-20T18:52:23;11.70;99.90
33093;DHT22;19456;46.104;12.908;2023-03-20T18:54:50;11.70;99.90
33093;DHT22;19456;46.104;12.908;2023-03-20T18:57:16;11.60;99.90
33093;DHT22;19456;46.104;12.908;2023-03-20T18:59:41;11.60;99.90
33093;DHT22;19456;46.104;12.908;2023-03-20T19:02:07;11.70;99.90
33093;DHT22;19456;46.104;12.908;2023-03-20T19:04:32;11.70;99.90
33093;DHT22;19456;46.104;12.908;2023-03-20T19:06:59;11.80;99.90
33093;DHT22;19456;46.104;12.908;2023-03-20T19:09:25;11.80;99.90
33093;DHT22;19456;46.104;12.908;2023-03-20T19:11:50;11.70;99.90